KSDY/SDY METAR and TAF weather

Enter ICAO airport designator
Station Type Date Time Source
KSDY METAR 2022/01/19 18:56 UTC NOAA

KSDY 191856Z AUTO 34006KT 10SM CLR M18/M25 A3064 RMK AO2 SLP443 T11781250 FZRANO


Station Type Date Time Source
KSDY Decoded METAR 2022/01/19 18:56 UTC NOAA

Sidney-Richland, MT, United States (KSDY) 47-42N 104-12W
Jan 19, 2022 - 01:56 PM EST / 2022.01.19 1856 UTC
Wind: from the NNW (340 degrees) at 7 MPH (6 KT):0
Visibility: 10 mile(s):0
Sky conditions: clear
Temperature: -0.0 F (-17.8 C)
Windchill: -13 F (-25 C):2
Dew Point: -13.0 F (-25.0 C)
Relative Humidity: 53%
Pressure (altimeter): 30.64 in. Hg (1037 hPa)
ob: KSDY 191856Z AUTO 34006KT 10SM CLR M18/M25 A3064 RMK AO2 SLP443 T11781250 FZRANO
cycle: 19

Station Type Date Time Source
KSDY TAF 2022/01/19 18:22 UTC NOAA

TAF KSDY 191720Z 1918/2018 VRB06KT P6SM SKC

Example: see airport list